Time;durP1;ratioP1;P1;durP2;ratioP2;P2;SDS_P1;SDS_P2;PMS_P1;PMS_P2;Temp;Humidity;BMP_temperature;BMP_pressure;BME280_temperature;BME280_humidity;BME280_pressure;Samples;Min_cycle;Max_cycle;Signal;HPM_P1;HPM_P2
2022/04/28 00:00:45;;;;;;;;;44.75;36.00;;;;;11.68;57.74;101536.72;4977855;28;45255;-63
2022/04/28 00:03:11;;;;;;;;;43.50;36.50;;;;;11.66;56.79;101534.13;4977998;28;45322;-65
2022/04/28 00:05:38;;;;;;;;;39.75;32.75;;;;;11.61;57.01;101532.50;4977740;28;46064;-66
2022/04/28 00:08:04;;;;;;;;;40.25;33.50;;;;;11.59;56.72;101536.97;4978017;28;45343;-67
2022/04/28 00:10:29;;;;;;;;;38.75;33.50;;;;;11.55;56.98;101538.84;4977667;28;45474;-66
2022/04/28 00:12:55;;;;;;;;;41.00;35.00;;;;;11.49;57.00;101531.97;4977561;28;45445;-65
2022/04/28 00:15:20;;;;;;;;;44.75;37.50;;;;;11.45;57.12;101529.47;4959808;28;47649;-64
2022/04/28 00:17:46;;;;;;;;;41.75;34.75;;;;;11.38;57.83;101524.38;4977397;28;45633;-64
2022/04/28 00:20:12;;;;;;;;;40.75;31.25;;;;;11.38;57.51;101531.41;4977762;28;45389;-67
2022/04/28 00:22:37;;;;;;;;;41.25;35.00;;;;;11.30;57.87;101522.88;4977728;28;45319;-67
2022/04/28 00:25:04;;;;;;;;;44.50;34.50;;;;;11.28;57.57;101532.56;4977655;28;46469;-65
2022/04/28 00:27:29;;;;;;;;;36.75;29.75;;;;;11.22;57.76;101529.22;4975867;28;45351;-67
2022/04/28 00:29:56;;;;;;;;;38.00;35.00;;;;;11.21;57.79;101527.47;4977687;28;45252;-69
2022/04/28 00:32:21;;;;;;;;;42.25;35.50;;;;;11.15;58.37;101525.03;4977700;28;45447;-66
2022/04/28 00:34:47;;;;;;;;;39.00;35.75;;;;;11.14;57.65;101536.47;4977285;28;45970;-67
2022/04/28 00:37:13;;;;;;;;;39.00;33.25;;;;;11.06;58.21;101523.50;4977321;28;45369;-66
2022/04/28 00:39:39;;;;;;;;;37.00;34.25;;;;;11.06;58.20;101527.91;4975987;28;45346;-69
2022/04/28 00:42:10;;;;;;;;;43.00;34.50;;;;;11.01;57.99;101525.38;4977569;28;45296;-66
2022/04/28 00:44:36;;;;;;;;;40.50;35.50;;;;;10.93;58.65;101516.81;4977327;28;47251;-67
2022/04/28 00:47:02;;;;;;;;;34.50;33.25;;;;;10.91;58.65;101530.03;4977200;28;45338;-69
2022/04/28 00:52:11;;;;;;;;;50.50;37.75;;;;;10.86;58.23;101516.16;4976825;28;45314;-67
2022/04/28 00:54:37;;;;;;;;;38.25;34.50;;;;;10.77;59.04;101517.22;4977310;28;46221;-66
2022/04/28 00:57:03;;;;;;;;;42.00;35.50;;;;;10.72;58.69;101521.75;4976986;28;45538;-67
2022/04/28 00:59:30;;;;;;;;;42.25;35.75;;;;;10.73;59.29;101523.47;4977906;28;45403;-67
2022/04/28 01:01:55;;;;;;;;;38.50;35.00;;;;;10.73;58.62;101525.28;4977826;28;45347;-69
2022/04/28 01:04:21;;;;;;;;;47.00;36.50;;;;;10.71;59.16;101527.06;4977037;28;46358;-67
2022/04/28 01:06:46;;;;;;;;;32.50;32.00;;;;;10.68;58.77;101529.78;4977108;28;45341;-67
2022/04/28 01:09:14;;;;;;;;;45.25;34.75;;;;;10.62;59.12;101522.91;4976969;28;45402;-68
2022/04/28 01:11:41;;;;;;;;;46.50;39.25;;;;;10.61;59.58;101529.94;4977297;28;45596;-66
2022/04/28 01:14:06;;;;;;;;;41.50;34.25;;;;;10.59;60.01;101531.72;4977042;28;46930;-68
2022/04/28 01:16:32;;;;;;;;;39.00;34.00;;;;;10.55;59.39;101526.59;4976881;28;45335;-67
2022/04/28 01:18:59;;;;;;;;;44.00;35.50;;;;;10.51;59.58;101524.03;4977049;28;45419;-66
2022/04/28 01:21:24;;;;;;;;;41.00;33.25;;;;;10.48;59.93;101520.59;4976889;28;45464;-67
2022/04/28 01:23:50;;;;;;;;;42.50;37.75;;;;;10.39;60.38;101511.16;4976711;28;45296;-68
2022/04/28 01:26:16;;;;;;;;;45.00;36.25;;;;;10.36;60.59;101521.75;4976550;28;45324;-68
2022/04/28 01:28:42;;;;;;;;;45.00;36.75;;;;;10.32;60.67;101520.94;4976560;28;45446;-67
2022/04/28 01:31:07;;;;;;;;;46.25;37.75;;;;;10.29;60.69;101523.66;4977025;28;45577;-67
2022/04/28 01:33:33;;;;;;;;;42.00;36.50;;;;;10.25;60.74;101527.25;4976129;28;45245;-67
2022/04/28 01:35:59;;;;;;;;;45.50;38.25;;;;;10.21;61.05;101517.69;4976482;28;45240;-69
2022/04/28 01:38:24;;;;;;;;;37.50;32.75;;;;;10.18;61.67;101516.03;4976557;28;45301;-68
2022/04/28 01:40:50;;;;;;;;;50.50;39.75;;;;;10.09;61.52;101517.09;4976891;28;45480;-64
2022/04/28 01:43:15;;;;;;;;;43.25;35.00;;;;;10.05;61.93;101514.56;4958738;28;46836;-66
2022/04/28 01:45:41;;;;;;;;;48.00;36.50;;;;;10.04;61.49;101511.09;4976422;28;45858;-65
2022/04/28 01:48:06;;;;;;;;;43.00;38.00;;;;;10.04;61.72;101518.09;4977035;28;45373;-65
2022/04/28 01:50:32;;;;;;;;;43.50;35.00;;;;;10.03;61.62;101514.59;4976687;28;45568;-68
2022/04/28 01:55:42;;;;;;;;;39.00;34.25;;;;;9.97;61.43;101517.38;4976196;28;45294;-67
2022/04/28 01:58:07;;;;;;;;;45.75;38.25;;;;;9.96;62.10;101523.53;4976533;28;45302;-65
2022/04/28 02:00:33;;;;;;;;;41.75;34.50;;;;;9.92;62.26;101512.22;4976534;28;45605;-64
2022/04/28 02:02:59;;;;;;;;;40.00;34.50;;;;;9.91;61.76;101514.88;4974907;28;45435;-67
2022/04/28 02:05:25;;;;;;;;;45.00;36.00;;;;;9.88;62.10;101518.44;4975989;28;45461;-67
2022/04/28 02:07:51;;;;;;;;;36.00;34.50;;;;;9.87;62.24;101521.97;4976316;28;45348;-68
2022/04/28 02:10:16;;;;;;;;;48.00;36.50;;;;;9.86;62.17;101522.00;4976745;28;45450;-66
2022/04/28 02:12:42;;;;;;;;;42.75;35.25;;;;;9.76;62.47;101514.34;4976164;28;46395;-66
2022/04/28 02:15:08;;;;;;;;;36.00;31.25;;;;;9.75;62.78;101524.84;4976150;28;45305;-67
2022/04/28 02:17:36;;;;;;;;;36.75;34.75;;;;;9.73;62.45;101530.16;4976230;28;45171;-67
2022/04/28 02:20:04;;;;;;;;;39.50;35.75;;;;;9.67;62.79;101527.66;4976076;28;45307;-68
2022/04/28 02:22:29;;;;;;;;;41.00;35.75;;;;;9.62;63.31;101525.13;4975567;28;45389;-66
2022/04/28 02:24:55;;;;;;;;;43.50;35.25;;;;;9.59;62.95;101524.34;4975708;28;45420;-64
2022/04/28 02:27:20;;;;;;;;;36.00;32.50;;;;;9.55;63.17;101520.91;4975714;28;45437;-65
2022/04/28 02:29:46;;;;;;;;;43.00;35.50;;;;;9.53;63.44;101524.44;4975832;28;45641;-65
2022/04/28 02:32:11;;;;;;;;;40.75;35.25;;;;;9.45;63.58;101520.22;4975554;28;46521;-69
2022/04/28 02:34:37;;;;;;;;;42.00;34.75;;;;;9.44;63.46;101526.34;4975620;28;45485;-69
2022/04/28 02:37:02;;;;;;;;;45.75;38.50;;;;;9.38;63.91;101518.59;4975902;28;45785;-68
2022/04/28 02:39:28;;;;;;;;;39.50;34.50;;;;;9.37;64.00;101522.13;4976031;28;45798;-70
2022/04/28 02:41:53;;;;;;;;;40.50;34.50;;;;;9.33;64.16;101517.84;4957956;28;47137;-68
2022/04/28 02:44:19;;;;;;;;;40.50;36.25;;;;;9.31;64.12;101525.75;4975525;28;45352;-66
2022/04/28 02:46:48;;;;;;;;;43.75;37.00;;;;;9.31;63.62;101540.63;4974214;28;45396;-65
2022/04/28 02:49:14;;;;;;;;;48.50;38.25;;;;;9.28;64.64;101536.31;4975929;28;45489;-67
2022/04/28 02:51:39;;;;;;;;;42.50;33.50;;;;;9.26;64.08;101529.34;4957960;28;45725;-67
2022/04/28 02:54:05;;;;;;;;;46.25;36.00;;;;;9.23;64.28;101532.91;4975451;28;45444;-67
2022/04/28 02:56:31;;;;;;;;;35.75;32.50;;;;;9.19;64.29;101531.25;4975398;28;45444;-65
2022/04/28 02:58:57;;;;;;;;;38.50;34.00;;;;;9.16;64.71;101526.91;4975626;28;45403;-67
2022/04/28 03:01:23;;;;;;;;;50.00;38.25;;;;;9.14;65.10;101533.94;4975147;28;45285;-66
2022/04/28 03:03:49;;;;;;;;;39.75;33.75;;;;;9.12;64.73;101540.97;4975350;28;45323;-66
2022/04/28 03:11:45;;;;;;;;;39.00;35.00;;;;;9.07;64.48;101537.59;4975331;28;45317;-64
2022/04/28 03:14:12;;;;;;;;;38.75;35.00;;;;;9.02;64.87;101536.81;4976573;28;45504;-67
2022/04/28 03:16:37;;;;;;;;;35.75;31.00;;;;;9.01;65.25;101543.81;4978812;28;45284;-67
2022/04/28 03:19:03;;;;;;;;;42.00;34.75;;;;;9.00;65.20;101542.06;4978778;28;45459;-66
2022/04/28 03:21:29;;;;;;;;;39.50;34.50;;;;;8.94;65.80;101539.56;4978471;28;45461;-67
2022/04/28 03:23:54;;;;;;;;;41.25;35.25;;;;;8.90;65.64;101543.13;4978564;28;45368;-67
2022/04/28 03:26:20;;;;;;;;;35.75;32.00;;;;;8.88;65.33;101537.91;4978655;28;45602;-66
2022/04/28 03:28:45;;;;;;;;;42.00;34.75;;;;;8.85;65.98;101542.34;4978695;28;45747;-64
2022/04/28 03:31:11;;;;;;;;;46.50;36.75;;;;;8.79;66.57;101540.69;4978564;28;45525;-67
2022/04/28 03:33:36;;;;;;;;;40.50;35.75;;;;;8.76;67.04;101541.59;4978174;28;45472;-67
2022/04/28 03:36:50;;;;;;;;;45.50;35.25;;;;;8.74;66.68;101542.53;4978464;28;45359;-65
2022/04/28 03:38:48;;;;;;;;;41.25;35.00;;;;;8.69;67.07;101541.75;4978589;28;45414;-66
2022/04/28 03:41:13;;;;;;;;;42.50;33.25;;;;;8.67;67.06;101539.16;4978440;28;46191;-66
2022/04/28 03:43:39;;;;;;;;;40.25;35.00;;;;;8.62;66.71;101535.72;4960489;28;45456;-65
2022/04/28 03:46:04;;;;;;;;;38.25;33.00;;;;;8.66;67.13;101544.44;4978171;28;45335;-65
2022/04/28 03:48:29;;;;;;;;;46.75;37.75;;;;;8.62;66.88;101547.09;4978479;28;45465;-66
2022/04/28 03:50:56;;;;;;;;;47.50;38.00;;;;;8.59;67.21;101541.03;4978373;28;46395;-66
2022/04/28 03:53:21;;;;;;;;;38.50;32.50;;;;;8.57;67.44;101543.69;4978136;28;45381;-66
2022/04/28 03:55:47;;;;;;;;;43.75;36.50;;;;;8.58;67.11;101545.44;4978310;28;45824;-65
2022/04/28 03:58:12;;;;;;;;;44.25;38.00;;;;;8.52;67.50;101540.28;4978305;28;45234;-66
2022/04/28 04:00:37;;;;;;;;;45.50;37.75;;;;;8.52;67.71;101550.78;4976381;28;45878;-66
2022/04/28 04:03:03;;;;;;;;;45.75;38.50;;;;;8.52;67.65;101558.63;4977801;28;45499;-66
2022/04/28 04:05:28;;;;;;;;;41.75;34.75;;;;;8.48;68.13;101543.78;4960370;28;45451;-65
2022/04/28 04:07:54;;;;;;;;;46.25;39.00;;;;;8.44;67.51;101542.09;4978107;28;45593;-67
2022/04/28 04:10:19;;;;;;;;;46.00;36.75;;;;;8.47;68.17;101555.16;4977904;28;46069;-66
2022/04/28 04:12:45;;;;;;;;;38.75;33.25;;;;;8.41;68.15;101544.78;4978190;28;45250;-67
2022/04/28 04:15:10;;;;;;;;;46.75;38.50;;;;;8.41;68.53;101555.25;4977720;28;45866;-66
2022/04/28 04:17:41;;;;;;;;;44.75;37.50;;;;;8.39;68.19;101554.41;4977879;28;45556;-65
2022/04/28 04:20:07;;;;;;;;;47.25;37.50;;;;;8.37;68.86;101557.06;4977378;28;45435;-63
2022/04/28 04:22:33;;;;;;;;;43.00;37.00;;;;;8.37;68.10;101558.81;4976205;28;45505;-65
2022/04/28 04:24:58;;;;;;;;;46.25;37.25;;;;;8.33;68.81;101564.09;4977170;28;45346;-66
2022/04/28 04:27:24;;;;;;;;;46.25;35.25;;;;;8.34;68.30;101567.59;4977363;28;45574;-66
2022/04/28 04:29:50;;;;;;;;;46.25;37.50;;;;;8.34;68.67;101562.38;4977338;28;46123;-64
2022/04/28 04:32:18;;;;;;;;;42.25;35.00;;;;;8.30;68.50;101566.78;4977309;28;45429;-63
2022/04/28 04:34:45;;;;;;;;;43.75;35.25;;;;;8.30;69.59;101569.41;4977441;28;45288;-66
2022/04/28 04:37:11;;;;;;;;;47.50;39.25;;;;;8.31;68.85;101573.75;4977623;28;45224;-66
2022/04/28 04:39:37;;;;;;;;;43.75;36.00;;;;;8.32;69.00;101575.47;4977097;28;46261;-65
2022/04/28 04:42:02;;;;;;;;;44.00;36.25;;;;;8.30;68.82;101573.78;4959585;28;45233;-66
2022/04/28 04:44:28;;;;;;;;;48.50;38.00;;;;;8.26;69.25;101572.09;4977363;28;45393;-67
2022/04/28 04:46:53;;;;;;;;;48.25;37.25;;;;;8.31;69.21;101576.38;4977450;28;45333;-66
2022/04/28 04:49:19;;;;;;;;;45.50;36.50;;;;;8.26;70.00;101569.47;4977570;28;45460;-64
2022/04/28 04:51:54;;;;;;;;;44.75;35.00;;;;;8.23;69.57;101569.53;4960062;28;45460;-67
2022/04/28 04:54:22;;;;;;;;;49.75;39.50;;;;;8.25;69.74;101575.63;4976352;28;45321;-65
2022/04/28 04:56:47;;;;;;;;;48.75;38.25;;;;;8.27;69.63;101581.69;4977762;28;45416;-65
2022/04/28 04:59:13;;;;;;;;;45.50;35.50;;;;;8.28;69.38;101578.19;4976987;28;45500;-65
2022/04/28 05:01:38;;;;;;;;;46.25;39.00;;;;;8.30;69.75;101581.66;4959417;28;45298;-65
2022/04/28 05:04:04;;;;;;;;;43.50;34.75;;;;;8.31;69.66;101583.38;4977223;28;45324;-65
2022/04/28 05:06:30;;;;;;;;;49.75;39.00;;;;;8.35;69.10;101587.69;4977398;28;45469;-64
2022/04/28 05:08:56;;;;;;;;;46.50;38.00;;;;;8.31;69.66;101578.13;4977375;28;46367;-65
2022/04/28 05:11:22;;;;;;;;;48.25;39.50;;;;;8.39;69.80;101597.25;4976856;28;45396;-64
2022/04/28 05:13:48;;;;;;;;;48.75;39.00;;;;;8.40;69.48;101593.72;4977415;28;45432;-66
2022/04/28 05:16:13;;;;;;;;;48.00;39.75;;;;;8.41;69.54;101592.84;4975905;28;45344;-68
2022/04/28 05:18:39;;;;;;;;;50.75;42.00;;;;;8.46;70.13;101598.88;4976831;28;46058;-66
2022/04/28 05:21:04;;;;;;;;;46.00;39.00;;;;;8.45;69.25;101591.91;4976904;28;45481;-66
2022/04/28 05:23:30;;;;;;;;;48.25;39.50;;;;;8.51;69.67;101606.72;4976885;28;45311;-65
2022/04/28 05:25:55;;;;;;;;;45.00;36.00;;;;;8.54;69.23;101611.03;4977081;28;45421;-64
2022/04/28 05:28:21;;;;;;;;;50.25;40.50;;;;;8.54;69.48;101604.06;4977174;28;46978;-67
2022/04/28 05:30:47;;;;;;;;;48.75;39.75;;;;;8.62;69.24;101612.69;4977007;28;45437;-65
2022/04/28 05:33:12;;;;;;;;;50.00;41.75;;;;;8.66;68.97;101618.72;4976936;28;45393;-66
2022/04/28 05:35:41;;;;;;;;;53.00;40.25;;;;;8.68;68.63;101618.72;4959648;28;45555;-68
2022/04/28 05:38:10;;;;;;;;;52.75;42.00;;;;;8.70;68.69;101630.06;4976361;28;46125;-67
2022/04/28 05:40:39;;;;;;;;;51.75;39.00;;;;;8.71;68.43;101618.66;4976626;28;45391;-68
2022/04/28 05:45:51;;;;;;;;;49.75;42.00;;;;;8.84;67.78;101629.81;4957477;28;45220;-67
2022/04/28 05:48:18;;;;;;;;;45.00;37.75;;;;;8.89;68.23;101635.84;4956668;28;47302;-68
2022/04/28 05:50:44;;;;;;;;;37.50;35.50;;;;;8.94;67.44;101635.78;4957045;28;45432;-66
2022/04/28 05:53:10;;;;;;;;;52.00;41.50;;;;;8.99;68.27;101636.59;4956612;28;45433;-66
2022/04/28 05:55:37;;;;;;;;;50.50;41.25;;;;;9.03;67.54;101639.16;4957093;28;45441;-68
2022/04/28 05:58:03;;;;;;;;;52.25;41.50;;;;;9.06;67.60;101640.84;4956506;28;45760;-67
2022/04/28 06:00:30;;;;;;;;;45.25;39.25;;;;;9.13;67.81;101645.09;4956802;28;45358;-67
2022/04/28 06:02:55;;;;;;;;;52.25;42.00;;;;;9.16;67.40;101644.19;4956850;28;45350;-66
2022/04/28 06:05:21;;;;;;;;;53.00;45.25;;;;;9.19;67.24;101647.59;4957197;28;45219;-66
2022/04/28 06:07:47;;;;;;;;;53.25;45.00;;;;;9.26;67.15;101650.13;4956653;28;47023;-64
2022/04/28 06:10:13;;;;;;;;;48.75;41.50;;;;;9.31;66.77;101648.28;4956462;28;45315;-67
2022/04/28 06:12:39;;;;;;;;;47.00;39.75;;;;;9.38;66.92;101652.53;4957008;28;45514;-65
2022/04/28 06:15:06;;;;;;;;;52.25;43.75;;;;;9.41;66.52;101647.22;4956563;28;45543;-67
2022/04/28 06:17:31;;;;;;;;;48.75;40.75;;;;;9.48;66.29;101651.47;4956317;28;45402;-66
2022/04/28 06:19:57;;;;;;;;;53.25;44.25;;;;;9.53;66.60;101655.75;4955994;28;45410;-65
2022/04/28 06:22:22;;;;;;;;;55.75;42.25;;;;;9.59;66.24;101658.31;4956399;28;45314;-63
2022/04/28 06:24:52;;;;;;;;;52.25;42.75;;;;;9.69;65.92;101664.22;4956298;28;45585;-66
2022/04/28 06:27:18;;;;;;;;;54.75;41.75;;;;;9.74;65.30;101658.00;4955741;28;45374;-69
2022/04/28 06:29:44;;;;;;;;;57.00;45.25;;;;;9.87;65.71;101660.41;4955648;28;45381;-68
2022/04/28 06:32:10;;;;;;;;;53.50;43.00;;;;;9.92;65.17;101669.06;4955518;28;45473;-67
2022/04/28 06:34:36;;;;;;;;;54.50;42.00;;;;;10.03;65.26;101671.44;4956070;28;45431;-69
2022/04/28 06:37:01;;;;;;;;;54.00;42.50;;;;;10.12;64.69;101668.66;4955438;28;46130;-68
2022/04/28 06:39:26;;;;;;;;;56.00;44.00;;;;;10.21;64.89;101673.72;4955781;28;45416;-59
2022/04/28 06:41:52;;;;;;;;;57.25;45.25;;;;;10.25;64.27;101664.00;4956369;28;45370;-62
2022/04/28 06:44:17;;;;;;;;;55.00;46.00;;;;;10.35;63.95;101668.16;4956189;28;45228;-63
2022/04/28 06:46:42;;;;;;;;;63.00;47.75;;;;;10.50;63.67;101680.13;4955488;28;45458;-61
2022/04/28 06:49:08;;;;;;;;;54.75;46.50;;;;;10.61;63.62;101682.53;4955037;28;45397;-62
2022/04/28 06:51:33;;;;;;;;;56.50;45.75;;;;;10.70;63.23;101691.13;4955802;28;45363;-62
2022/04/28 06:54:00;;;;;;;;;53.00;42.50;;;;;10.80;63.21;101693.50;4955979;28;45123;-63
2022/04/28 06:56:25;;;;;;;;;53.00;44.25;;;;;10.91;63.11;101693.25;4955641;28;46507;-63
2022/04/28 06:58:50;;;;;;;;;73.00;54.50;;;;;11.01;62.33;101693.03;4938159;28;45506;-63
2022/04/28 07:01:16;;;;;;;;;55.50;44.00;;;;;11.05;62.01;101687.63;4955754;28;45226;-62
2022/04/28 07:03:41;;;;;;;;;54.50;43.50;;;;;11.15;62.39;101690.91;4955976;28;45223;-62
2022/04/28 07:06:07;;;;;;;;;55.25;43.25;;;;;11.28;62.23;101691.50;4955606;28;45407;-63
2022/04/28 07:08:32;;;;;;;;;52.25;40.75;;;;;11.39;61.00;101694.72;4953919;28;45330;-63
2022/04/28 07:10:58;;;;;;;;;57.50;43.25;;;;;11.47;61.37;101694.50;4955481;28;45681;-62
2022/04/28 07:13:23;;;;;;;;;45.25;39.75;;;;;11.62;61.23;101703.78;4955909;28;45464;-61
2022/04/28 07:15:49;;;;;;;;;49.75;41.50;;;;;11.69;60.95;101707.97;4955413;28;45453;-64
2022/04/28 07:18:15;;;;;;;;;49.75;39.25;;;;;11.84;60.20;101719.91;4937851;28;45439;-64
2022/04/28 07:20:41;;;;;;;;;47.75;39.00;;;;;11.94;59.84;101706.47;4937915;28;45346;-65
2022/04/28 07:23:06;;;;;;;;;52.00;41.50;;;;;12.02;60.44;101704.50;4955624;28;45482;-65
2022/04/28 07:25:31;;;;;;;;;50.75;42.75;;;;;12.16;60.10;101695.31;4955142;28;45411;-62
2022/04/28 07:27:58;;;;;;;;;44.00;35.75;;;;;12.34;59.57;101702.69;4963893;28;45756;-64
2022/04/28 07:30:24;;;;;;;;;51.25;41.00;;;;;12.46;59.26;101692.69;4978395;28;45357;-65
2022/04/28 07:32:51;;;;;;;;;53.00;41.50;;;;;12.64;58.78;101697.41;4980345;28;45631;-61
2022/04/28 07:35:18;;;;;;;;;51.75;42.25;;;;;12.82;58.43;101703.03;4975161;28;45541;-62
2022/04/28 07:37:43;;;;;;;;;51.00;40.00;;;;;13.02;58.45;101706.81;4977491;28;45683;-62
2022/04/28 07:40:09;;;;;;;;;47.75;39.00;;;;;13.18;57.69;101702.75;4984071;28;45372;-61
2022/04/28 07:42:34;;;;;;;;;53.50;40.75;;;;;13.27;57.15;101712.16;4986020;28;45573;-64
2022/04/28 07:45:00;;;;;;;;;48.00;41.00;;;;;13.40;57.21;101702.03;4978181;28;45429;-62
2022/04/28 07:47:28;;;;;;;;;50.00;41.25;;;;;13.62;56.12;101714.53;4988753;28;45654;-62
2022/04/28 07:49:54;;;;;;;;;50.75;41.75;;;;;13.77;56.17;101711.34;4980814;28;45354;-62
2022/04/28 07:52:20;;;;;;;;;48.25;40.25;;;;;13.86;55.55;101708.38;4983489;28;45455;-60
2022/04/28 07:54:45;;;;;;;;;49.50;41.50;;;;;14.00;55.67;101713.16;4987018;28;46311;-61
2022/04/28 07:57:10;;;;;;;;;48.25;39.75;;;;;14.10;54.58;101708.41;4977148;28;45358;-61
2022/04/28 07:59:37;;;;;;;;;49.00;41.00;;;;;14.26;53.65;101713.13;4989422;28;45532;-63
2022/04/28 08:02:04;;;;;;;;;50.75;40.50;;;;;14.36;53.70;101713.66;4967226;28;45398;-61
2022/04/28 08:04:30;;;;;;;;;52.75;42.75;;;;;14.35;53.31;101710.13;4983430;28;45558;-63
2022/04/28 08:06:56;;;;;;;;;48.75;40.75;;;;;14.45;53.01;101718.59;4991897;28;45417;-63
2022/04/28 08:09:21;;;;;;;;;40.50;34.75;;;;;14.57;53.29;101725.19;4980254;28;45515;-60
2022/04/28 08:11:47;;;;;;;;;50.00;41.25;;;;;14.67;52.61;101728.34;4991706;28;45676;-69
2022/04/28 08:14:12;;;;;;;;;51.25;43.00;;;;;14.82;52.61;101725.13;4985868;28;45750;-65
2022/04/28 08:16:37;;;;;;;;;51.50;37.75;;;;;14.97;52.06;101731.59;4984177;28;45498;-64
2022/04/28 08:19:03;;;;;;;;;41.25;36.50;;;;;15.07;51.98;101726.78;4975143;28;45833;-67
2022/04/28 08:21:29;;;;;;;;;52.50;39.50;;;;;15.18;52.38;101723.69;4980677;28;45589;-64
2022/04/28 08:23:54;;;;;;;;;47.50;40.25;;;;;15.29;51.63;101731.19;4972233;28;47598;-60
2022/04/28 08:26:20;;;;;;;;;52.00;41.50;;;;;15.42;51.27;101734.19;4968854;28;48840;-60
2022/04/28 08:28:45;;;;;;;;;48.00;39.75;;;;;15.48;51.52;101725.97;4982772;28;45350;-59
2022/04/28 08:31:10;;;;;;;;;46.75;40.25;;;;;15.60;51.28;101730.75;4992958;28;45491;-60
2022/04/28 08:33:36;;;;;;;;;47.25;39.25;;;;;15.71;50.74;101732.06;4979944;28;45328;-60
2022/04/28 08:36:01;;;;;;;;;45.00;38.00;;;;;15.74;50.25;101732.81;4988480;28;45426;-60
2022/04/28 08:38:27;;;;;;;;;46.00;38.00;;;;;15.81;49.98;101732.56;4987535;28;45418;-59
2022/04/28 08:41:01;;;;;;;;;49.00;39.25;;;;;15.86;50.28;101718.13;4981838;28;45429;-60
2022/04/28 08:43:30;;;;;;;;;45.50;37.75;;;;;16.14;49.25;101734.66;4992425;28;47470;-60
2022/04/28 08:48:50;;;;;;;;;45.25;35.00;;;;;16.43;49.14;101728.03;4982771;28;45322;-58
2022/04/28 08:51:17;;;;;;;;;45.25;36.25;;;;;16.67;48.60;101726.94;4975086;28;45685;-60
2022/04/28 08:53:47;;;;;;;;;51.75;44.00;;;;;16.83;48.52;101724.38;4981064;28;46327;-60
2022/04/28 08:56:12;;;;;;;;;45.25;38.00;;;;;16.97;47.81;101729.97;4986944;28;45397;-61
2022/04/28 08:58:38;;;;;;;;;38.25;34.75;;;;;17.15;47.48;101732.63;4988443;28;45327;-61
2022/04/28 09:01:03;;;;;;;;;42.50;35.00;;;;;17.21;46.78;101724.34;4980418;28;45576;-60
2022/04/28 09:03:29;;;;;;;;;40.25;35.50;;;;;17.27;46.77;101716.06;4992538;28;45951;-61
2022/04/28 09:05:55;;;;;;;;;41.50;34.75;;;;;17.39;47.04;101719.88;4982885;28;45457;-59
2022/04/28 09:08:20;;;;;;;;;32.50;31.00;;;;;17.51;45.75;101719.28;4986075;28;45339;-59
2022/04/28 09:10:46;;;;;;;;;37.00;32.25;;;;;17.54;46.14;101722.72;4989556;28;45583;-60
2022/04/28 09:15:56;;;;;;;;;38.00;33.00;;;;;17.76;45.16;101717.13;4988975;28;45453;-60
2022/04/28 09:18:23;;;;;;;;;38.25;32.50;;;;;17.75;45.13;101716.28;4965294;28;45368;-60
2022/04/28 09:20:50;;;;;;;;;31.25;29.50;;;;;17.80;45.25;101713.38;4989990;28;45441;-60
2022/04/28 09:23:18;;;;;;;;;42.25;35.00;;;;;17.92;45.09;101710.06;4978771;28;46237;-60
2022/04/28 09:25:44;;;;;;;;;34.75;31.75;;;;;17.96;44.29;101708.94;4990618;28;45529;-60
2022/04/28 09:28:10;;;;;;;;;41.25;36.00;;;;;17.95;44.75;101701.06;4984064;28;45377;-59
2022/04/28 09:30:43;;;;;;;;;34.50;32.25;;;;;18.01;44.78;101703.41;4965677;28;45592;-60
2022/04/28 09:33:11;;;;;;;;;37.00;33.50;;;;;18.15;44.71;101701.81;4991729;28;46702;-59
2022/04/28 09:35:44;;;;;;;;;34.00;30.00;;;;;18.29;43.90;101696.59;4979230;28;45355;-60
2022/04/28 09:38:09;;;;;;;;;30.00;29.75;;;;;18.37;43.23;101698.84;4986527;28;45358;-60
2022/04/28 09:43:20;;;;;;;;;35.50;32.50;;;;;18.80;42.52;101701.75;4978783;28;45717;-59
2022/04/28 09:45:48;;;;;;;;;31.75;30.00;;;;;19.00;42.96;101694.41;4989628;28;45448;-60
2022/04/28 09:48:14;;;;;;;;;35.25;31.00;;;;;19.17;42.11;101698.78;4984590;28;45295;-59
2022/04/28 09:50:40;;;;;;;;;34.75;32.00;;;;;19.12;40.11;101699.06;4982822;28;45250;-60
2022/04/28 09:53:06;;;;;;;;;27.50;27.00;;;;;19.20;41.88;101700.41;4991102;28;45504;-60
2022/04/28 09:55:32;;;;;;;;;31.50;30.00;;;;;19.29;42.16;101675.00;4977126;28;45726;-60
2022/04/28 09:57:58;;;;;;;;;36.00;31.25;;;;;19.52;41.70;101700.31;4988063;28;45390;-60
2022/04/28 10:00:24;;;;;;;;;27.25;27.25;;;;;19.54;40.71;101691.22;4985772;28;45587;-59
2022/04/28 10:02:50;;;;;;;;;27.75;27.75;;;;;19.54;41.29;101683.22;4980280;28;45373;-61
2022/04/28 10:05:16;;;;;;;;;29.75;28.50;;;;;19.63;40.89;101681.81;4991101;28;45442;-60
2022/04/28 10:07:42;;;;;;;;;33.75;29.75;;;;;19.73;41.08;101681.25;4979684;28;45515;-60
2022/04/28 10:10:08;;;;;;;;;35.75;31.00;;;;;19.86;40.59;101676.88;4986509;28;45440;-60
2022/04/28 10:12:34;;;;;;;;;31.00;29.50;;;;;20.02;39.78;101686.63;4986492;28;45632;-61
2022/04/28 10:15:00;;;;;;;;;22.00;21.75;;;;;20.10;39.29;101678.97;4979029;28;45246;-59
2022/04/28 10:17:32;;;;;;;;;26.25;25.25;;;;;20.13;38.87;101676.13;4990895;28;45277;-60
2022/04/28 10:20:03;;;;;;;;;27.00;25.75;;;;;20.12;38.27;101672.59;4964077;28;45336;-60
2022/04/28 10:22:34;;;;;;;;;24.75;23.75;;;;;20.08;38.41;101680.88;4983106;28;46358;-60
2022/04/28 10:33:22;;;;;;;;;24.00;23.25;;;;;20.14;38.45;101678.72;4990263;28;45339;-60
2022/04/28 10:35:50;;;;;;;;;26.50;25.50;;;;;20.35;38.39;101672.09;4979866;28;45422;-60
2022/04/28 10:38:34;;;;;;;;;25.75;22.75;;;;;20.61;36.97;101667.72;4984854;28;45344;-60
2022/04/28 10:41:10;;;;;;;;;19.75;18.00;;;;;20.71;35.88;101673.31;4990334;28;45473;-59
2022/04/28 10:43:37;;;;;;;;;22.75;22.50;;;;;20.80;36.16;101662.03;4962674;28;45392;-59
2022/04/28 10:46:08;;;;;;;;;17.75;16.00;;;;;21.06;35.81;101664.78;4968361;28;45419;-60
2022/04/28 10:48:44;;;;;;;;;24.25;22.00;;;;;21.27;36.04;101653.59;4986345;28;45498;-61
2022/04/28 10:51:12;;;;;;;;;26.25;22.00;;;;;21.53;35.91;101653.63;4959857;28;45423;-60
2022/04/28 10:54:09;;;;;;;;;23.75;22.75;;;;;21.53;35.86;101658.97;4971361;28;48315;-59
2022/04/28 10:56:54;;;;;;;;;25.75;25.00;;;;;21.58;35.70;101654.97;4986558;28;45551;-60
2022/04/28 10:59:25;;;;;;;;;32.75;25.25;;;;;21.73;36.42;101658.44;4977720;28;45263;-60
2022/04/28 11:01:51;;;;;;;;;22.00;22.00;;;;;21.87;36.12;101649.44;4988028;28;45277;-56
2022/04/28 11:04:21;;;;;;;;;20.00;17.75;;;;;21.89;33.63;101655.56;4983461;28;45367;-60
2022/04/28 11:06:52;;;;;;;;;15.00;14.25;;;;;21.73;34.20;101649.53;4980429;28;45502;-61
2022/04/28 11:09:32;;;;;;;;;22.00;17.25;;;;;21.91;34.86;101657.25;4990161;28;45467;-60
2022/04/28 11:12:07;;;;;;;;;24.75;23.25;;;;;22.12;35.01;101654.84;4980764;28;45783;-59
2022/04/28 11:14:45;;;;;;;;;21.50;19.00;;;;;22.26;33.43;101653.84;4982109;28;46245;-60
2022/04/28 11:17:14;;;;;;;;;17.50;15.75;;;;;22.35;33.07;101649.66;4989865;28;45274;-59
2022/04/28 11:19:44;;;;;;;;;16.25;15.50;;;;;22.53;32.85;101652.81;4978555;28;45521;-60
2022/04/28 11:22:11;;;;;;;;;17.00;15.75;;;;;22.63;33.34;101655.69;4967657;28;45488;-61
2022/04/28 11:24:44;;;;;;;;;14.25;14.00;;;;;22.76;31.43;101661.84;4986160;28;45695;-60
2022/04/28 11:27:20;;;;;;;;;19.25;17.75;;;;;22.90;33.00;101663.50;4977047;28;45351;-61
2022/04/28 11:29:46;;;;;;;;;22.00;20.00;;;;;23.29;32.23;101663.25;4987846;28;45254;-59
2022/04/28 11:32:15;;;;;;;;;14.00;13.75;;;;;23.55;31.12;101663.06;4982617;28;45445;-59
2022/04/28 11:34:43;;;;;;;;;16.00;14.00;;;;;23.60;30.52;101664.41;4981047;28;46227;-60
2022/04/28 11:37:17;;;;;;;;;13.00;13.00;;;;;23.59;30.84;101668.06;4993714;28;45363;-61
2022/04/28 11:39:47;;;;;;;;;18.00;16.50;;;;;23.55;30.84;101668.44;4997807;28;45433;-60